Time;durP1;ratioP1;P1;durP2;ratioP2;P2;SDS_P1;SDS_P2;PMS_P1;PMS_P2;Temp;Humidity;BMP_temperature;BMP_pressure;BME280_temperature;BME280_humidity;BME280_pressure;Samples;Min_cycle;Max_cycle;Signal;HPM_P1;HPM_P2
2023/04/18 00:02:21;;;;;;;20.48;16.48;;;8.00;99.90;;;;;;4952439;29;20078;-73
2023/04/18 00:04:48;;;;;;;22.90;16.27;;;8.00;99.90;;;;;;4953078;28;20069;-69
2023/04/18 00:07:16;;;;;;;23.70;16.77;;;8.00;99.90;;;;;;4958486;28;20063;-73
2023/04/18 00:09:42;;;;;;;21.75;15.65;;;8.10;99.90;;;;;;4953973;29;20031;-73
2023/04/18 00:12:09;;;;;;;21.08;15.95;;;8.00;99.90;;;;;;4953414;29;20045;-73
2023/04/18 00:14:36;;;;;;;24.35;16.73;;;8.00;99.90;;;;;;4953038;29;20071;-73
2023/04/18 00:17:03;;;;;;;23.48;16.45;;;8.00;99.90;;;;;;4953187;29;20031;-73
2023/04/18 00:19:28;;;;;;;23.38;16.85;;;8.00;99.90;;;;;;4936170;29;20031;-73
2023/04/18 00:21:54;;;;;;;22.17;16.27;;;8.00;99.90;;;;;;4953385;29;20038;-73
2023/04/18 00:24:20;;;;;;;21.70;15.88;;;8.00;99.90;;;;;;4957732;28;20077;-73
2023/04/18 00:26:45;;;;;;;21.23;15.80;;;8.00;99.90;;;;;;4955891;28;20054;-72
2023/04/18 00:29:11;;;;;;;24.00;17.15;;;8.00;99.90;;;;;;4953504;29;20110;-69
2023/04/18 00:31:37;;;;;;;21.38;16.23;;;8.00;99.90;;;;;;4952848;29;20465;-74
2023/04/18 00:34:02;;;;;;;22.38;15.90;;;7.90;99.90;;;;;;4953810;29;20035;-73
2023/04/18 00:36:28;;;;;;;17.52;13.73;;;8.00;99.90;;;;;;4952149;29;20446;-74
2023/04/18 00:38:53;;;;;;;20.60;15.13;;;7.90;99.90;;;;;;4953989;29;20032;-74
2023/04/18 00:41:20;;;;;;;23.63;16.83;;;7.90;99.90;;;;;;4947178;28;20059;-73
2023/04/18 00:43:46;;;;;;;22.02;16.50;;;7.90;99.90;;;;;;4954350;28;20043;-73
2023/04/18 00:46:12;;;;;;;22.00;15.90;;;7.90;99.90;;;;;;4959222;29;20031;-70
2023/04/18 00:48:38;;;;;;;21.10;15.32;;;7.90;99.90;;;;;;4959331;28;20031;-72
2023/04/18 00:51:06;;;;;;;22.05;15.65;;;7.80;99.90;;;;;;4959485;29;20023;-73
2023/04/18 00:53:32;;;;;;;22.60;15.52;;;7.90;99.90;;;;;;4959305;28;20083;-73
2023/04/18 00:55:57;;;;;;;22.92;16.08;;;7.90;99.90;;;;;;4958929;29;20116;-72
2023/04/18 00:58:23;;;;;;;21.13;15.57;;;7.90;99.90;;;;;;4956037;28;20060;-73
2023/04/18 01:00:49;;;;;;;22.42;16.30;;;7.90;99.90;;;;;;4958665;28;20028;-73
2023/04/18 01:03:17;;;;;;;21.20;16.05;;;7.90;99.90;;;;;;4958396;29;20110;-70
2023/04/18 01:05:43;;;;;;;23.38;16.48;;;7.90;99.90;;;;;;4959632;29;20038;-73
2023/04/18 01:08:09;;;;;;;21.02;14.90;;;8.00;99.90;;;;;;4946806;29;20110;-73
2023/04/18 01:10:36;;;;;;;20.27;14.50;;;8.10;99.90;;;;;;4958793;28;20099;-73
2023/04/18 01:13:16;;;;;;;23.05;16.92;;;8.10;99.90;;;;;;4959030;28;20043;-73
2023/04/18 01:15:43;;;;;;;24.75;16.90;;;8.10;99.90;;;;;;4955317;28;20043;-73
2023/04/18 01:18:09;;;;;;;22.67;15.52;;;8.00;99.90;;;;;;4968716;28;20086;-73
2023/04/18 01:20:46;;;;;;;22.98;16.40;;;8.00;99.90;;;;;;4959231;29;20027;-73
2023/04/18 01:23:12;;;;;;;21.13;15.32;;;8.00;99.90;;;;;;4958789;29;20526;-73
2023/04/18 01:25:38;;;;;;;19.45;14.73;;;8.00;99.90;;;;;;4959427;29;20404;-73
2023/04/18 01:28:05;;;;;;;22.67;15.50;;;7.90;99.90;;;;;;4959038;29;20038;-73
2023/04/18 01:30:32;;;;;;;22.38;15.50;;;7.80;99.90;;;;;;4958515;29;20042;-73
2023/04/18 01:32:59;;;;;;;20.55;15.73;;;7.90;99.90;;;;;;4958988;29;20027;-73
2023/04/18 01:35:24;;;;;;;20.02;14.73;;;7.90;99.90;;;;;;4953915;28;20044;-73
2023/04/18 01:37:50;;;;;;;19.42;13.98;;;8.00;99.90;;;;;;4959108;29;20035;-73
2023/04/18 01:40:16;;;;;;;20.88;14.15;;;8.00;99.90;;;;;;4958577;29;20432;-69
2023/04/18 01:42:41;;;;;;;21.13;14.05;;;8.00;99.90;;;;;;4958850;28;20031;-73
2023/04/18 01:45:07;;;;;;;20.60;14.93;;;8.00;99.90;;;;;;4959616;29;20483;-73
2023/04/18 01:47:33;;;;;;;22.98;15.68;;;8.00;99.90;;;;;;4958159;28;20718;-73
2023/04/18 01:49:58;;;;;;;20.25;15.60;;;8.00;99.90;;;;;;4959221;29;20055;-73
2023/04/18 01:52:25;;;;;;;18.25;13.77;;;8.00;99.90;;;;;;4956818;28;20059;-73
2023/04/18 01:54:50;;;;;;;22.08;14.73;;;8.00;99.90;;;;;;4966375;28;20133;-73
2023/04/18 01:57:16;;;;;;;20.13;13.40;;;8.00;99.90;;;;;;4954956;28;20106;-70
2023/04/18 01:59:42;;;;;;;17.70;13.45;;;8.00;99.90;;;;;;4956131;29;20031;-73
2023/04/18 02:02:07;;;;;;;19.30;14.38;;;8.00;99.90;;;;;;4955430;28;20081;-72
2023/04/18 02:04:33;;;;;;;21.40;14.70;;;8.00;99.90;;;;;;4955660;29;20042;-73
2023/04/18 02:06:58;;;;;;;20.08;14.50;;;8.00;99.90;;;;;;4955427;29;20055;-74
2023/04/18 02:09:24;;;;;;;23.60;14.73;;;8.00;99.90;;;;;;4952997;28;20050;-69
2023/04/18 02:11:50;;;;;;;22.55;15.68;;;8.00;99.90;;;;;;4955661;28;20034;-73
2023/04/18 02:14:15;;;;;;;25.45;15.65;;;7.90;99.90;;;;;;4955956;29;20063;-69
2023/04/18 02:16:41;;;;;;;23.17;15.77;;;7.90;99.90;;;;;;4937737;29;20031;-73
2023/04/18 02:19:07;;;;;;;20.60;15.10;;;7.80;99.90;;;;;;4956107;29;20488;-73
2023/04/18 02:21:32;;;;;;;21.15;15.05;;;7.80;99.90;;;;;;4954603;29;20029;-74
2023/04/18 02:23:58;;;;;;;21.80;15.60;;;7.70;99.90;;;;;;4955944;29;20038;-73
2023/04/18 02:26:24;;;;;;;25.63;15.70;;;7.70;99.90;;;;;;4950836;28;20592;-73
2023/04/18 02:28:49;;;;;;;25.08;15.77;;;7.70;99.90;;;;;;4938721;29;20023;-74
2023/04/18 02:31:15;;;;;;;21.85;15.48;;;7.60;99.90;;;;;;4954743;29;20031;-70
2023/04/18 02:33:42;;;;;;;22.67;16.33;;;7.60;99.90;;;;;;4955478;29;20039;-73
2023/04/18 02:36:08;;;;;;;21.42;15.40;;;7.60;99.90;;;;;;4955304;29;20035;-73
2023/04/18 02:38:34;;;;;;;23.25;14.85;;;7.60;99.90;;;;;;4954741;29;20391;-73
2023/04/18 02:40:59;;;;;;;24.85;16.33;;;7.70;99.90;;;;;;4955102;29;20027;-73
2023/04/18 02:43:25;;;;;;;21.35;15.15;;;7.60;99.90;;;;;;4954507;29;20050;-74
2023/04/18 02:45:51;;;;;;;21.90;16.58;;;7.60;99.90;;;;;;4950687;28;20035;-71
2023/04/18 02:48:16;;;;;;;22.60;16.27;;;7.60;99.90;;;;;;4954520;29;20023;-70
2023/04/18 02:50:42;;;;;;;23.67;16.38;;;7.50;99.90;;;;;;4955087;29;20404;-73
2023/04/18 02:53:07;;;;;;;22.45;15.90;;;7.50;99.90;;;;;;4954752;29;20485;-73
2023/04/18 02:55:33;;;;;;;21.83;16.17;;;7.40;99.90;;;;;;4954603;29;20035;-73
2023/04/18 02:57:59;;;;;;;25.50;16.30;;;7.40;99.90;;;;;;4954632;29;20086;-73
2023/04/18 03:00:24;;;;;;;21.90;16.33;;;7.40;99.90;;;;;;4954842;29;20074;-73
2023/04/18 03:02:51;;;;;;;23.98;16.02;;;7.40;99.90;;;;;;4952837;28;20043;-74
2023/04/18 03:05:18;;;;;;;23.73;16.27;;;7.40;99.90;;;;;;4962392;28;20035;-70
2023/04/18 03:07:43;;;;;;;22.92;15.57;;;7.40;99.90;;;;;;4953972;28;20023;-72
2023/04/18 03:10:09;;;;;;;23.23;15.35;;;7.30;99.90;;;;;;4955318;29;20034;-73
2023/04/18 03:12:35;;;;;;;22.60;15.70;;;7.30;99.90;;;;;;4953743;29;20059;-72
2023/04/18 03:15:00;;;;;;;30.38;16.33;;;7.30;99.90;;;;;;4954668;29;20166;-73
2023/04/18 03:17:26;;;;;;;20.65;15.18;;;7.20;99.90;;;;;;4953592;29;20469;-73
2023/04/18 03:19:51;;;;;;;20.77;14.80;;;7.20;99.90;;;;;;4955866;29;20047;-74
2023/04/18 03:22:17;;;;;;;21.15;14.90;;;7.40;99.90;;;;;;4948807;28;20027;-70
2023/04/18 03:24:43;;;;;;;22.38;15.85;;;7.40;99.90;;;;;;4955613;29;20472;-74
2023/04/18 03:27:08;;;;;;;22.33;15.45;;;7.30;99.90;;;;;;4955725;29;20030;-73
2023/04/18 03:29:34;;;;;;;20.63;14.30;;;7.20;99.90;;;;;;4956368;29;20030;-74
2023/04/18 03:31:59;;;;;;;20.90;15.10;;;7.20;99.90;;;;;;4957245;29;20027;-74
2023/04/18 03:34:25;;;;;;;20.00;14.52;;;7.10;99.90;;;;;;4956381;29;20126;-74
2023/04/18 03:36:51;;;;;;;21.35;15.25;;;7.10;99.90;;;;;;4954340;29;20031;-79
2023/04/18 03:39:16;;;;;;;22.80;15.43;;;7.00;99.90;;;;;;4949641;28;20053;-69
2023/04/18 03:41:42;;;;;;;18.98;14.43;;;7.10;99.90;;;;;;4936485;29;20032;-73
2023/04/18 03:44:08;;;;;;;18.95;14.50;;;7.00;99.90;;;;;;4954186;29;20035;-75
2023/04/18 03:46:34;;;;;;;19.55;14.13;;;7.00;99.90;;;;;;4953201;29;20024;-74
2023/04/18 03:48:59;;;;;;;21.10;15.02;;;7.10;99.90;;;;;;4954309;29;20106;-73
2023/04/18 03:51:26;;;;;;;22.55;15.32;;;7.10;99.90;;;;;;4952878;29;20080;-72
2023/04/18 03:53:51;;;;;;;19.17;14.38;;;7.20;99.90;;;;;;4954097;29;20057;-73
2023/04/18 03:56:17;;;;;;;20.63;14.20;;;7.10;99.90;;;;;;4949788;28;20388;-68
2023/04/18 03:58:43;;;;;;;23.30;15.18;;;7.10;99.90;;;;;;4952885;29;20031;-72
2023/04/18 04:01:08;;;;;;;23.83;15.20;;;7.00;99.90;;;;;;4953565;29;20086;-73
2023/04/18 04:03:34;;;;;;;21.52;15.20;;;7.00;99.90;;;;;;4952806;29;20522;-73
2023/04/18 04:05:59;;;;;;;20.83;14.93;;;6.90;99.90;;;;;;4953262;29;20030;-73
2023/04/18 04:08:25;;;;;;;21.98;15.27;;;6.90;99.90;;;;;;4953380;29;20106;-73
2023/04/18 04:10:51;;;;;;;21.17;14.20;;;6.90;99.90;;;;;;4953814;29;20019;-70
2023/04/18 04:13:16;;;;;;;21.05;14.85;;;6.80;99.90;;;;;;4949327;28;20126;-74
2023/04/18 04:15:42;;;;;;;23.77;15.93;;;6.80;99.90;;;;;;4952840;29;20036;-73
2023/04/18 04:18:08;;;;;;;21.50;15.00;;;6.80;99.90;;;;;;4953093;29;20039;-74
2023/04/18 04:20:33;;;;;;;19.08;14.73;;;6.90;99.90;;;;;;4952488;28;20421;-72
2023/04/18 04:23:00;;;;;;;24.15;14.95;;;6.90;99.90;;;;;;4953151;29;20102;-72
2023/04/18 04:25:28;;;;;;;20.33;15.15;;;7.00;99.90;;;;;;4953163;29;20031;-74
2023/04/18 04:27:54;;;;;;;20.90;15.73;;;6.90;99.90;;;;;;4951484;29;20384;-73
2023/04/18 04:30:20;;;;;;;26.58;15.73;;;6.90;99.90;;;;;;4948396;28;20039;-73
2023/04/18 04:32:46;;;;;;;19.17;13.80;;;6.90;99.90;;;;;;4949739;29;20027;-74
2023/04/18 04:35:12;;;;;;;22.58;16.52;;;6.90;99.90;;;;;;4950964;29;20113;-73
2023/04/18 04:37:40;;;;;;;21.75;15.00;;;6.90;99.90;;;;;;4952883;29;20035;-73
2023/04/18 04:40:08;;;;;;;24.02;15.23;;;6.90;99.90;;;;;;4953902;29;20536;-73
2023/04/18 04:42:34;;;;;;;20.73;13.85;;;6.90;99.90;;;;;;4929822;29;20032;-73
2023/04/18 04:45:01;;;;;;;20.35;14.55;;;6.90;99.90;;;;;;4951593;29;20035;-72
2023/04/18 04:47:26;;;;;;;19.45;14.60;;;6.90;99.90;;;;;;4947751;28;20019;-73
2023/04/18 04:49:52;;;;;;;20.25;14.93;;;6.90;99.90;;;;;;4953659;29;20429;-74
2023/04/18 04:52:18;;;;;;;24.15;14.95;;;6.80;99.90;;;;;;4953122;29;20050;-73
2023/04/18 04:54:45;;;;;;;24.63;15.95;;;6.90;99.90;;;;;;4952602;29;20043;-73
2023/04/18 04:57:11;;;;;;;23.30;16.23;;;6.90;99.90;;;;;;4953261;29;20110;-73
2023/04/18 04:59:36;;;;;;;20.98;15.40;;;7.00;99.90;;;;;;4952935;29;20437;-73
2023/04/18 05:02:02;;;;;;;25.00;15.68;;;7.00;99.90;;;;;;4948032;29;20031;-73
2023/04/18 05:04:28;;;;;;;25.42;15.18;;;7.00;99.90;;;;;;4952103;29;20421;-71
2023/04/18 05:06:53;;;;;;;20.38;15.05;;;7.00;99.90;;;;;;4952624;28;20082;-72
2023/04/18 05:09:21;;;;;;;22.88;16.17;;;7.00;99.90;;;;;;4953329;29;20045;-71
2023/04/18 05:11:48;;;;;;;25.10;15.35;;;7.00;99.90;;;;;;4952728;29;20032;-73
2023/04/18 05:14:14;;;;;;;23.35;15.55;;;7.10;99.90;;;;;;4953439;29;20038;-73
2023/04/18 05:16:40;;;;;;;20.33;15.52;;;7.10;99.90;;;;;;4952486;29;20035;-73
2023/04/18 05:19:06;;;;;;;23.67;15.88;;;7.10;99.90;;;;;;4953301;29;20035;-72
2023/04/18 05:21:31;;;;;;;22.17;15.73;;;7.20;99.90;;;;;;4946665;28;20062;-73
2023/04/18 05:23:57;;;;;;;25.65;16.60;;;7.20;99.90;;;;;;4953054;29;20035;-73
2023/04/18 05:26:23;;;;;;;23.88;16.63;;;7.20;99.90;;;;;;4951954;29;20039;-71
2023/04/18 05:28:48;;;;;;;24.35;16.67;;;7.20;99.90;;;;;;4953128;29;20050;-73
2023/04/18 05:31:14;;;;;;;26.38;16.33;;;7.20;99.90;;;;;;4948429;28;20516;-73
2023/04/18 05:33:40;;;;;;;22.40;16.05;;;7.30;99.90;;;;;;4955722;29;20831;-73
2023/04/18 05:36:06;;;;;;;23.67;16.70;;;7.30;99.90;;;;;;4956135;29;20061;-73
2023/04/18 05:38:32;;;;;;;23.48;16.35;;;7.30;99.90;;;;;;4955812;29;20460;-73
2023/04/18 05:40:59;;;;;;;25.98;16.75;;;7.20;99.90;;;;;;4956101;29;20040;-72
2023/04/18 05:43:24;;;;;;;25.90;16.40;;;7.20;99.90;;;;;;4955882;29;20035;-69
2023/04/18 05:45:53;;;;;;;20.67;16.40;;;7.30;99.90;;;;;;4956525;29;20030;-70
2023/04/18 05:48:20;;;;;;;28.33;17.92;;;7.30;99.90;;;;;;4951347;28;20038;-70
2023/04/18 05:50:45;;;;;;;26.67;16.90;;;7.40;99.90;;;;;;4955402;29;20042;-70
2023/04/18 05:53:11;;;;;;;21.73;16.08;;;7.40;99.90;;;;;;4955752;29;20031;-70
2023/04/18 05:55:39;;;;;;;43.70;18.50;;;7.50;99.90;;;;;;4955676;29;20531;-75
2023/04/18 05:58:04;;;;;;;21.20;15.52;;;7.50;99.90;;;;;;4955772;29;20023;-77
2023/04/18 06:00:30;;;;;;;23.73;16.75;;;7.50;99.90;;;;;;4955129;29;20027;-69
2023/04/18 06:02:55;;;;;;;20.70;15.63;;;7.60;99.90;;;;;;4955243;29;20225;-70
2023/04/18 06:05:21;;;;;;;21.98;15.85;;;7.70;99.90;;;;;;4953483;28;20031;-69
2023/04/18 06:07:47;;;;;;;24.55;16.30;;;7.80;99.90;;;;;;4954741;29;20461;-70
2023/04/18 06:10:13;;;;;;;27.58;15.88;;;7.70;99.90;;;;;;4948520;29;20033;-74
2023/04/18 06:12:39;;;;;;;22.38;16.20;;;7.70;99.90;;;;;;4955150;29;20353;-73
2023/04/18 06:15:05;;;;;;;23.75;16.13;;;7.80;99.90;;;;;;4956336;29;20042;-73
2023/04/18 06:17:31;;;;;;;26.60;15.82;;;7.80;99.90;;;;;;4957895;29;20027;-72
2023/04/18 06:19:57;;;;;;;20.92;15.73;;;7.90;99.90;;;;;;4956537;29;20027;-73
2023/04/18 06:22:22;;;;;;;22.73;15.90;;;7.90;99.90;;;;;;4939266;28;20101;-73
2023/04/18 06:24:48;;;;;;;25.60;15.75;;;7.90;99.90;;;;;;4955174;29;20070;-76
2023/04/18 06:27:13;;;;;;;26.55;16.17;;;7.90;99.90;;;;;;4948839;28;20046;-74
2023/04/18 06:29:39;;;;;;;26.30;16.73;;;7.90;99.90;;;;;;4950045;29;20440;-72
2023/04/18 06:32:05;;;;;;;21.45;15.63;;;8.00;99.90;;;;;;4950105;29;20034;-74
2023/04/18 06:34:30;;;;;;;25.08;17.15;;;8.00;99.90;;;;;;4954495;29;20043;-72
2023/04/18 06:36:56;;;;;;;22.27;15.73;;;8.00;99.90;;;;;;4950686;29;20441;-73
2023/04/18 06:39:22;;;;;;;26.67;15.93;;;8.10;99.90;;;;;;4954544;29;20114;-69
2023/04/18 06:41:48;;;;;;;23.17;16.67;;;8.10;99.90;;;;;;4954249;28;20020;-74
2023/04/18 06:44:14;;;;;;;22.00;16.10;;;8.20;99.90;;;;;;4955632;29;20042;-74
2023/04/18 06:46:40;;;;;;;24.63;15.32;;;8.30;99.90;;;;;;4953447;29;20023;-73
2023/04/18 06:49:06;;;;;;;22.40;15.85;;;8.40;99.90;;;;;;4954837;29;20042;-72
2023/04/18 06:51:32;;;;;;;23.73;16.20;;;8.40;99.90;;;;;;4936572;29;20039;-73
2023/04/18 06:53:58;;;;;;;23.83;16.30;;;8.30;99.90;;;;;;4954971;29;20540;-73
2023/04/18 06:56:24;;;;;;;22.38;16.02;;;8.30;99.90;;;;;;4936386;29;20163;-73
2023/04/18 06:58:51;;;;;;;23.17;15.23;;;8.30;99.90;;;;;;4954956;29;20258;-73
2023/04/18 07:01:17;;;;;;;22.77;15.57;;;8.30;99.90;;;;;;4951888;29;20039;-72
2023/04/18 07:03:43;;;;;;;23.92;16.50;;;8.30;99.90;;;;;;4948546;29;20051;-73
2023/04/18 07:06:09;;;;;;;21.67;16.05;;;8.30;99.90;;;;;;4953444;29;20035;-71
2023/04/18 07:08:35;;;;;;;24.02;16.50;;;8.30;99.90;;;;;;4954293;29;20125;-73
2023/04/18 07:11:01;;;;;;;21.88;14.32;;;8.30;99.90;;;;;;4953648;29;20063;-74
2023/04/18 07:13:26;;;;;;;21.17;16.08;;;8.30;99.90;;;;;;4954398;29;20488;-70
2023/04/18 07:15:52;;;;;;;23.70;16.45;;;8.30;99.90;;;;;;4953405;29;20031;-72
2023/04/18 07:18:18;;;;;;;21.38;15.25;;;8.40;99.90;;;;;;4954368;29;20035;-73
2023/04/18 07:20:44;;;;;;;23.33;15.60;;;8.50;99.90;;;;;;4953220;29;20030;-73
2023/04/18 07:23:09;;;;;;;20.60;15.43;;;8.50;99.90;;;;;;4953697;29;20038;-70
2023/04/18 07:25:36;;;;;;;22.13;14.90;;;8.50;99.90;;;;;;4953512;29;20038;-73
2023/04/18 07:28:01;;;;;;;23.58;14.90;;;8.60;99.90;;;;;;4953719;29;20023;-74
2023/04/18 07:30:27;;;;;;;25.60;16.80;;;8.60;99.90;;;;;;4953593;29;20057;-73
2023/04/18 07:32:52;;;;;;;21.70;15.07;;;8.60;99.90;;;;;;4953354;29;20090;-74
2023/04/18 07:35:18;;;;;;;24.55;15.07;;;8.70;99.90;;;;;;4949373;29;20066;-74
2023/04/18 07:37:44;;;;;;;22.00;15.50;;;8.70;99.90;;;;;;4952960;29;20044;-74
2023/04/18 07:40:10;;;;;;;22.67;15.13;;;8.80;99.90;;;;;;4955204;29;20033;-73
2023/04/18 07:42:36;;;;;;;19.25;14.43;;;8.80;99.90;;;;;;4954328;29;20036;-73
2023/04/18 07:45:01;;;;;;;22.48;15.07;;;8.90;99.90;;;;;;4956930;29;20126;-76
2023/04/18 07:47:27;;;;;;;22.08;15.68;;;8.80;99.90;;;;;;4952703;29;20065;-70
2023/04/18 07:49:53;;;;;;;21.92;14.88;;;8.90;99.90;;;;;;4953746;29;20108;-74
2023/04/18 07:52:19;;;;;;;19.52;13.77;;;8.80;99.90;;;;;;4953117;29;20043;-73
2023/04/18 07:54:44;;;;;;;22.02;14.52;;;8.90;99.90;;;;;;4952105;28;20035;-74
2023/04/18 07:57:10;;;;;;;24.98;15.27;;;9.00;99.90;;;;;;4949554;29;20110;-73
2023/04/18 07:59:36;;;;;;;22.52;15.35;;;9.10;99.90;;;;;;4954523;29;20433;-74
2023/04/18 08:02:02;;;;;;;21.02;14.85;;;9.10;99.90;;;;;;4953392;29;20135;-74
2023/04/18 08:04:27;;;;;;;20.60;14.85;;;9.20;99.90;;;;;;4953032;29;20035;-70
2023/04/18 08:06:53;;;;;;;19.90;15.10;;;9.30;99.90;;;;;;4935126;29;20032;-73
2023/04/18 08:09:20;;;;;;;18.40;14.23;;;9.50;99.90;;;;;;4953422;29;20419;-74
2023/04/18 08:11:46;;;;;;;20.58;14.38;;;9.70;99.90;;;;;;4951786;29;20611;-73
2023/04/18 08:14:12;;;;;;;23.27;14.73;;;9.90;99.90;;;;;;4950509;29;20054;-73
2023/04/18 08:16:38;;;;;;;17.05;13.27;;;10.10;99.90;;;;;;4952171;29;20030;-73
2023/04/18 08:19:04;;;;;;;22.80;12.93;;;10.30;99.90;;;;;;4953500;29;20027;-73
2023/04/18 08:21:31;;;;;;;18.33;14.18;;;10.40;99.90;;;;;;4950034;29;20055;-73
2023/04/18 08:23:56;;;;;;;18.67;14.23;;;10.60;99.90;;;;;;4959936;29;20174;-74
2023/04/18 08:26:22;;;;;;;19.05;13.93;;;10.60;99.90;;;;;;4960817;29;20055;-71
2023/04/18 08:28:48;;;;;;;18.95;14.27;;;10.50;99.90;;;;;;4959333;29;20059;-73
2023/04/18 08:31:14;;;;;;;20.65;13.52;;;10.60;99.90;;;;;;4958898;29;20116;-74
2023/04/18 08:33:40;;;;;;;18.00;13.68;;;10.60;99.90;;;;;;4954653;29;20090;-74
2023/04/18 08:36:06;;;;;;;17.95;14.45;;;10.50;99.90;;;;;;4953316;29;20041;-73
2023/04/18 08:38:32;;;;;;;17.50;13.45;;;10.60;99.90;;;;;;4952423;29;20031;-74
2023/04/18 08:40:57;;;;;;;20.02;14.07;;;10.60;99.90;;;;;;4952677;29;20102;-73
2023/04/18 08:43:24;;;;;;;19.75;14.15;;;10.90;99.90;;;;;;4953487;29;20039;-74
2023/04/18 08:45:51;;;;;;;19.75;14.45;;;11.00;99.90;;;;;;4953021;29;20102;-73
2023/04/18 08:48:17;;;;;;;22.38;14.00;;;11.10;99.90;;;;;;4952378;29;20054;-73
2023/04/18 08:50:43;;;;;;;18.92;14.55;;;11.20;99.90;;;;;;4952275;29;20480;-73
2023/04/18 08:53:09;;;;;;;16.92;13.40;;;11.40;99.90;;;;;;4935575;29;20465;-73
2023/04/18 08:55:36;;;;;;;18.05;13.77;;;11.40;99.90;;;;;;4952014;29;20461;-73
2023/04/18 08:58:05;;;;;;;20.20;14.27;;;11.70;99.90;;;;;;4952047;29;20044;-74
2023/04/18 09:00:31;;;;;;;18.17;13.48;;;12.00;99.90;;;;;;4952347;29;20028;-73
2023/04/18 09:02:57;;;;;;;18.30;13.02;;;12.00;99.90;;;;;;4952011;29;20090;-73
2023/04/18 09:05:25;;;;;;;19.27;13.98;;;12.10;99.90;;;;;;4953752;28;20035;-73
2023/04/18 09:07:53;;;;;;;18.67;13.93;;;12.10;99.90;;;;;;4955769;29;20103;-74
2023/04/18 09:10:33;;;;;;;19.45;13.57;;;12.10;99.90;;;;;;4950043;29;20480;-73
2023/04/18 09:13:01;;;;;;;;;;;12.00;99.90;;;;;;4956619;29;20107;-73
2023/04/18 09:15:28;;;;;;;20.40;14.02;;;11.80;99.90;;;;;;4956046;29;19907;-69
2023/04/18 09:17:59;;;;;;;20.55;15.00;;;11.70;99.90;;;;;;4955677;29;20070;-74
2023/04/18 09:20:39;;;;;;;19.42;14.55;;;11.40;99.90;;;;;;4956382;29;20023;-69
2023/04/18 09:23:13;;;;;;;19.73;13.90;;;11.30;99.90;;;;;;4955914;29;20098;-74
2023/04/18 09:25:46;;;;;;;19.38;14.52;;;11.30;99.90;;;;;;4955998;29;20129;-73
2023/04/18 09:28:32;;;;;;;19.40;14.50;;;11.10;99.90;;;;;;4955729;29;20035;-73
2023/04/18 09:31:08;;;;;;;21.88;15.35;;;11.10;99.90;;;;;;4948272;29;20079;-72
2023/04/18 09:33:35;;;;;;;22.83;14.88;;;11.00;99.90;;;;;;4955530;29;20043;-72
2023/04/18 09:36:23;;;;;;;20.02;14.43;;;10.90;99.90;;;;;;4955671;29;20055;-73
2023/04/18 09:38:51;;;;;;;28.02;16.10;;;10.90;99.90;;;;;;4945689;29;20077;-72
2023/04/18 09:41:17;;;;;;;19.27;14.48;;;11.00;99.90;;;;;;4955639;29;20023;-73
2023/04/18 09:43:43;;;;;;;20.45;14.82;;;11.00;99.90;;;;;;4955272;29;20066;-74
2023/04/18 09:46:09;;;;;;;23.13;15.75;;;11.10;99.90;;;;;;4955750;29;20094;-73
2023/04/18 09:48:35;;;;;;;23.38;15.50;;;11.30;99.90;;;;;;4954827;29;20042;-73
2023/04/18 09:51:06;;;;;;;19.33;14.60;;;11.40;99.90;;;;;;4955079;29;20468;-74
2023/04/18 09:53:38;;;;;;;20.20;15.00;;;11.50;99.90;;;;;;4955022;29;20031;-72
2023/04/18 09:56:05;;;;;;;21.48;14.77;;;11.60;99.90;;;;;;4955467;29;20031;-71
2023/04/18 09:58:33;;;;;;;19.63;14.65;;;11.80;99.90;;;;;;4953796;29;20031;-73
2023/04/18 10:00:59;;;;;;;20.67;14.38;;;11.90;99.90;;;;;;4954463;28;20027;-73
2023/04/18 10:03:33;;;;;;;17.30;13.45;;;12.00;99.90;;;;;;4955344;29;20058;-70
2023/04/18 10:05:58;;;;;;;17.33;13.73;;;12.20;99.90;;;;;;4949913;29;20031;-73
2023/04/18 10:08:26;;;;;;;17.13;12.27;;;12.50;99.90;;;;;;4955445;29;20042;-71
2023/04/18 10:10:54;;;;;;;17.35;13.63;;;12.80;99.90;;;;;;4955051;29;20046;-70
2023/04/18 10:13:20;;;;;;;17.63;12.95;;;13.00;99.90;;;;;;4955121;29;20111;-74
2023/04/18 10:15:47;;;;;;;15.18;12.82;;;13.20;99.90;;;;;;4955143;29;20404;-72
2023/04/18 10:18:16;;;;;;;17.00;12.18;;;13.20;99.90;;;;;;4954018;28;20027;-72
2023/04/18 10:20:43;;;;;;;18.40;12.68;;;13.20;99.90;;;;;;4944365;29;20047;-72
2023/04/18 10:23:30;;;;;;;19.83;13.20;;;13.10;99.90;;;;;;4954256;29;20074;-73
2023/04/18 10:25:57;;;;;;;14.93;11.73;;;13.30;99.90;;;;;;4954635;29;20027;-72
2023/04/18 10:28:23;;;;;;;16.52;12.02;;;13.50;99.90;;;;;;4955437;29;20082;-73
2023/04/18 10:30:51;;;;;;;15.68;12.25;;;13.70;99.90;;;;;;4953960;29;20059;-72
2023/04/18 10:33:37;;;;;;;15.50;11.82;;;13.90;99.90;;;;;;4953484;29;20024;-72
2023/04/18 10:36:02;;;;;;;14.02;10.98;;;14.00;99.90;;;;;;4954578;29;20041;-74
2023/04/18 10:38:28;;;;;;;14.00;10.32;;;;;;;;;;4954268;29;20443;-70
2023/04/18 10:41:13;;;;;;;13.32;10.20;;;;;;;;;;4955004;29;20039;-72
2023/04/18 10:44:07;;;;;;;15.10;10.98;;;14.40;99.90;;;;;;4954356;29;20039;-73
2023/04/18 10:46:34;;;;;;;12.93;9.82;;;14.50;99.90;;;;;;4953571;29;20138;-74
2023/04/18 10:49:23;;;;;;;12.30;10.32;;;14.50;99.90;;;;;;4955013;29;20033;-73
2023/04/18 10:52:00;;;;;;;14.95;10.95;;;14.30;99.90;;;;;;4954053;29;20035;-75
2023/04/18 10:54:36;;;;;;;12.52;9.80;;;14.20;99.90;;;;;;4952625;29;20051;-70
2023/04/18 10:57:03;;;;;;;14.95;10.13;;;14.10;99.90;;;;;;4953696;29;20031;-74
2023/04/18 10:59:38;;;;;;;11.30;9.77;;;14.20;99.90;;;;;;4936616;29;20433;-71
2023/04/18 11:02:31;;;;;;;12.27;9.73;;;14.30;99.90;;;;;;4950398;29;20114;-70
2023/04/18 11:04:58;;;;;;;11.30;8.75;;;14.40;99.90;;;;;;4948427;29;20374;-71
2023/04/18 11:07:36;;;;;;;12.60;8.50;;;14.50;99.90;;;;;;4954053;29;20057;-72
2023/04/18 11:10:03;;;;;;;10.82;8.80;;;14.60;99.90;;;;;;4954359;29;20120;-73
2023/04/18 11:12:34;;;;;;;12.25;8.30;;;14.50;99.90;;;;;;4953170;29;20060;-70
2023/04/18 11:15:01;;;;;;;10.65;8.98;;;14.50;99.90;;;;;;4953661;29;20491;-73
2023/04/18 11:17:31;;;;;;;10.77;8.85;;;14.50;99.90;;;;;;4953549;29;20461;-69
2023/04/18 11:20:10;;;;;;;11.48;8.52;;;14.40;99.90;;;;;;4954406;29;20097;-73
2023/04/18 11:22:55;;;;;;;10.23;8.20;;;14.30;99.90;;;;;;4952884;29;20042;-73
2023/04/18 11:25:28;;;;;;;11.40;8.45;;;14.00;99.90;;;;;;4943614;29;20383;-72
2023/04/18 11:27:57;;;;;;;12.13;8.63;;;13.90;99.90;;;;;;4954862;28;20023;-73
2023/04/18 11:30:22;;;;;;;10.70;8.75;;;13.90;99.90;;;;;;4953154;29;20027;-73
2023/04/18 11:32:48;;;;;;;9.43;7.03;;;13.90;99.90;;;;;;4952131;29;20605;-72
2023/04/18 11:35:15;;;;;;;11.57;7.82;;;14.00;99.90;;;;;;4953760;29;20046;-73
2023/04/18 11:37:44;;;;;;;11.43;8.00;;;14.10;99.90;;;;;;4952024;29;20443;-70
2023/04/18 11:40:11;;;;;;;9.30;7.53;;;14.20;99.90;;;;;;4954418;29;20106;-73
2023/04/18 11:42:38;;;;;;;11.20;7.88;;;14.10;99.90;;;;;;4953750;29;20385;-73
2023/04/18 11:45:11;;;;;;;12.02;7.55;;;14.10;99.90;;;;;;4954570;29;20039;-74
2023/04/18 11:47:37;;;;;;;9.10;7.28;;;14.00;99.90;;;;;;4953904;29;20404;-73
2023/04/18 11:50:06;;;;;;;12.50;7.75;;;13.90;99.90;;;;;;4953859;29;20042;-73
2023/04/18 11:52:33;;;;;;;13.20;7.18;;;13.70;99.90;;;;;;4952553;29;20039;-73
2023/04/18 11:55:23;;;;;;;11.45;6.95;;;13.50;99.90;;;;;;4953652;29;20039;-73
2023/04/18 11:58:00;;;;;;;10.48;7.32;;;13.40;99.90;;;;;;4945876;29;20599;-72
2023/04/18 12:00:44;;;;;;;9.27;7.05;;;13.40;99.90;;;;;;4953584;29;20038;-70
2023/04/18 12:03:17;;;;;;;11.23;8.10;;;13.50;99.90;;;;;;4952868;29;20070;-73
2023/04/18 12:05:43;;;;;;;9.10;6.90;;;13.60;99.90;;;;;;4952475;29;20023;-72
2023/04/18 12:08:17;;;;;;;11.50;7.78;;;13.70;99.90;;;;;;4953122;29;20122;-73
2023/04/18 12:10:49;;;;;;;10.05;6.82;;;13.80;99.90;;;;;;4940699;29;20122;-74
2023/04/18 12:13:15;;;;;;;9.38;6.85;;;13.80;99.90;;;;;;4952848;29;20486;-72
2023/04/18 12:15:43;;;;;;;8.60;6.80;;;13.90;99.90;;;;;;4952651;29;20115;-73
2023/04/18 12:18:11;;;;;;;8.30;6.80;;;13.90;99.90;;;;;;4952985;29;20027;-73
2023/04/18 12:20:44;;;;;;;8.90;6.53;;;13.90;99.90;;;;;;4952272;29;20019;-74
2023/04/18 12:23:34;;;;;;;8.63;6.65;;;13.80;99.90;;;;;;4952768;29;20030;-73
2023/04/18 12:26:21;;;;;;;10.02;6.15;;;13.90;99.90;;;;;;4952570;29;20529;-72
2023/04/18 12:28:49;;;;;;;10.32;7.45;;;13.90;99.90;;;;;;4942707;29;20035;-73
2023/04/18 12:31:15;;;;;;;8.95;7.30;;;14.00;99.90;;;;;;4952582;29;20030;-73
2023/04/18 12:33:41;;;;;;;8.32;6.35;;;14.20;99.90;;;;;;4952505;29;20028;-71
2023/04/18 12:36:07;;;;;;;7.25;6.38;;;14.40;99.90;;;;;;4952605;29;20499;-73
2023/04/18 12:38:34;;;;;;;10.13;6.95;;;14.70;99.90;;;;;;4952284;29;20038;-73